createdAt,value
2023-04-27T00:01:30.422Z,5.80
2023-04-27T00:06:34.631Z,5.83
2023-04-27T00:11:37.213Z,6.00
2023-04-27T00:16:40.116Z,6.25
2023-04-27T00:21:42.907Z,6.78
2023-04-27T00:26:46.119Z,6.97
2023-04-27T00:31:48.707Z,6.70
2023-04-27T00:36:51.555Z,5.97
2023-04-27T00:41:55.972Z,7.00
2023-04-27T00:46:59.076Z,7.00
2023-04-27T00:52:05.372Z,6.28
2023-04-27T00:57:08.945Z,5.60
2023-04-27T01:02:12.376Z,6.35
2023-04-27T01:07:15.936Z,5.78
2023-04-27T01:12:18.579Z,6.22
2023-04-27T01:17:22.049Z,5.68
2023-04-27T01:22:24.641Z,7.45
2023-04-27T01:27:29.148Z,6.18
2023-04-27T01:32:32.026Z,5.90
2023-04-27T01:37:35.236Z,5.47
2023-04-27T01:42:38.364Z,5.18
2023-04-27T01:47:44.380Z,5.72
2023-04-27T01:52:47.594Z,5.90
2023-04-27T01:57:50.367Z,5.22
2023-04-27T02:02:57.387Z,5.10
2023-04-27T02:08:00.276Z,5.70
2023-04-27T02:13:03.031Z,5.97
2023-04-27T02:18:05.970Z,5.80
2023-04-27T02:23:08.576Z,5.65
2023-04-27T02:28:11.353Z,4.85
2023-04-27T02:33:14.673Z,5.45
2023-04-27T02:38:17.367Z,5.97
2023-04-27T02:43:20.033Z,5.55
2023-04-27T02:48:22.779Z,5.38
2023-04-27T02:53:25.690Z,5.85
2023-04-27T02:58:28.531Z,5.28
2023-04-27T03:03:31.413Z,5.05
2023-04-27T03:08:34.172Z,5.45
2023-04-27T03:13:42.349Z,5.03
2023-04-27T03:18:45.629Z,5.65
2023-04-27T03:23:48.218Z,5.25
2023-04-27T03:28:52.221Z,5.00
2023-04-27T03:33:55.304Z,5.40
2023-04-27T03:38:58.289Z,5.60
2023-04-27T03:44:01.272Z,5.05
2023-04-27T03:49:04.956Z,4.93
2023-04-27T03:54:10.057Z,5.72
2023-04-27T03:59:13.224Z,4.97
2023-04-27T04:04:21.715Z,4.35
2023-04-27T04:09:24.820Z,5.00
2023-04-27T04:14:28.107Z,5.05
2023-04-27T04:19:31.352Z,4.77
2023-04-27T04:24:34.061Z,5.38
2023-04-27T04:29:37.751Z,5.18
2023-04-27T04:34:40.877Z,5.32
2023-04-27T04:39:44.197Z,4.40
2023-04-27T04:44:47.395Z,4.55
2023-04-27T04:49:51.432Z,5.97
2023-04-27T04:54:54.445Z,4.80
2023-04-27T04:59:57.713Z,5.07
2023-04-27T05:05:01.754Z,5.43
2023-04-27T05:10:04.945Z,5.68
2023-04-27T05:15:08.043Z,5.55
2023-04-27T05:20:11.705Z,5.30
2023-04-27T05:25:14.329Z,6.15
2023-04-27T05:30:17.223Z,5.85
2023-04-27T05:35:19.880Z,5.80
2023-04-27T05:40:22.994Z,6.97
2023-04-27T05:45:25.675Z,6.00
2023-04-27T05:50:28.338Z,6.05
2023-04-27T05:55:31.265Z,6.88
2023-04-27T06:00:33.976Z,6.68
2023-04-27T06:05:36.864Z,7.65
2023-04-27T06:10:39.930Z,8.45
2023-04-27T06:16:03.442Z,7.10
2023-04-27T06:26:09.737Z,8.37
2023-04-27T06:31:12.495Z,9.25
2023-04-27T06:36:15.161Z,9.07
2023-04-27T06:41:18.181Z,8.38
2023-04-27T06:46:21.120Z,7.60
2023-04-27T06:51:23.923Z,7.30
2023-04-27T06:56:29.626Z,8.93
2023-04-27T07:01:32.467Z,7.28
2023-04-27T07:06:35.324Z,8.50
2023-04-27T07:11:38.149Z,6.13
2023-04-27T07:16:41.192Z,4.97
2023-04-27T07:21:44.087Z,4.70
2023-04-27T07:26:48.180Z,4.40
2023-04-27T07:31:52.970Z,4.53
2023-04-27T07:36:55.767Z,4.43
2023-04-27T07:41:58.498Z,4.70
2023-04-27T07:47:04.824Z,5.20
2023-04-27T07:52:08.585Z,4.57
2023-04-27T07:57:14.119Z,4.60
2023-04-27T08:02:20.157Z,4.30
2023-04-27T08:07:23.439Z,3.92
2023-04-27T08:12:27.569Z,4.00
2023-04-27T08:17:30.231Z,3.67
2023-04-27T08:22:35.546Z,3.47
2023-04-27T08:27:40.078Z,3.40
2023-04-27T08:37:47.681Z,4.20
2023-04-27T08:42:59.473Z,3.17
2023-04-27T08:48:02.296Z,3.40
2023-04-27T08:53:04.964Z,2.95
2023-04-27T08:58:07.706Z,3.33
2023-04-27T09:03:27.397Z,3.90
2023-04-27T09:08:40.773Z,3.75
2023-04-27T09:13:47.055Z,3.70
2023-04-27T09:18:49.871Z,3.80
2023-04-27T09:23:53.108Z,3.83
2023-04-27T09:28:59.043Z,3.50
2023-04-27T09:34:02.450Z,3.53
2023-04-27T09:39:05.505Z,4.07
2023-04-27T09:44:08.750Z,3.50
2023-04-27T09:49:12.354Z,4.38
2023-04-27T09:54:16.538Z,4.75
2023-04-27T09:59:52.682Z,3.45
2023-04-27T10:05:18.613Z,3.85
2023-04-27T10:10:21.485Z,3.90
2023-04-27T10:15:28.863Z,3.70
2023-04-27T10:20:36.518Z,3.53
2023-04-27T10:25:40.952Z,5.13
2023-04-27T10:30:46.832Z,3.85
2023-04-27T10:35:58.200Z,4.82
2023-04-27T10:41:02.710Z,4.45
2023-04-27T10:46:10.790Z,4.85
2023-04-27T10:51:17.718Z,4.40
2023-04-27T10:56:20.574Z,4.68
2023-04-27T11:01:30.777Z,4.30
2023-04-27T11:06:42.891Z,4.55
2023-04-27T11:11:46.379Z,4.22
2023-04-27T11:16:49.324Z,4.47
2023-04-27T11:21:52.216Z,5.07
2023-04-27T11:26:55.213Z,4.83
2023-04-27T11:31:59.198Z,4.27
2023-04-27T11:42:31.657Z,4.88
2023-04-27T11:47:36.097Z,4.68
2023-04-27T11:52:42.635Z,5.53
2023-04-27T11:57:45.353Z,4.80
2023-04-27T12:02:48.093Z,4.40
2023-04-27T12:07:51.085Z,4.93
2023-04-27T12:12:54.062Z,4.57
2023-04-27T12:17:56.700Z,4.30
2023-04-27T12:22:59.364Z,4.27
2023-04-27T12:28:01.978Z,4.28
2023-04-27T12:33:12.398Z,4.18
2023-04-27T12:38:15.494Z,4.30
2023-04-27T12:43:18.236Z,4.35
2023-04-27T12:48:22.659Z,4.23
2023-04-27T12:53:25.353Z,4.20
2023-04-27T12:58:28.402Z,4.57
2023-04-27T13:03:31.567Z,4.18
2023-04-27T13:08:35.964Z,4.10
2023-04-27T13:13:38.728Z,3.92
2023-04-27T13:18:47.403Z,4.03
2023-04-27T13:23:54.826Z,4.20
2023-04-27T13:28:58.336Z,4.10
2023-04-27T13:34:01.377Z,3.97
2023-04-27T13:39:05.068Z,4.30
2023-04-27T13:44:07.679Z,4.20
2023-04-27T13:49:11.027Z,4.23
2023-04-27T13:59:16.799Z,4.47
2023-04-27T14:04:19.630Z,4.20
2023-04-27T14:09:24.197Z,4.35
2023-04-27T14:14:27.891Z,5.05
2023-04-27T14:19:31.618Z,4.03
2023-04-27T14:24:34.183Z,4.38
2023-04-27T14:29:36.788Z,4.25
2023-04-27T14:34:39.424Z,4.70
2023-04-27T14:39:44.993Z,4.97
2023-04-27T14:44:49.644Z,3.95
2023-04-27T14:49:52.650Z,3.80
2023-04-27T14:54:55.634Z,6.23
2023-04-27T14:59:59.104Z,4.93
2023-04-27T15:05:02.000Z,5.13
2023-04-27T15:10:05.811Z,4.37
2023-04-27T15:20:14.064Z,4.40
2023-04-27T15:25:16.701Z,4.70
2023-04-27T15:30:19.675Z,5.50
2023-04-27T15:35:22.417Z,4.80
2023-04-27T15:40:25.031Z,4.80
2023-04-27T15:45:28.885Z,4.78
2023-04-27T15:50:31.547Z,4.82
2023-04-27T15:55:34.129Z,5.30
2023-04-27T16:00:37.940Z,4.90
2023-04-27T16:05:41.127Z,5.15
2023-04-27T16:10:43.723Z,4.87
2023-04-27T16:15:46.294Z,4.80
2023-04-27T16:20:50.216Z,5.10
2023-04-27T16:25:53.114Z,4.78
2023-04-27T16:30:55.893Z,5.60
2023-04-27T16:35:58.569Z,4.22
2023-04-27T16:41:01.322Z,4.95
2023-04-27T16:46:04.065Z,5.20
2023-04-27T16:51:06.966Z,5.50
2023-04-27T16:56:12.089Z,4.90
2023-04-27T17:01:14.872Z,6.25
2023-04-27T17:06:17.818Z,5.07
2023-04-27T17:11:20.476Z,5.10
2023-04-27T17:16:23.603Z,5.22
2023-04-27T17:21:27.518Z,5.50
2023-04-27T17:26:30.281Z,5.25
2023-04-27T17:31:33.934Z,6.20
2023-04-27T17:36:36.798Z,6.75
2023-04-27T17:41:39.667Z,5.68
2023-04-27T17:46:46.865Z,6.50
2023-04-27T17:51:49.761Z,7.43
2023-04-27T17:56:52.433Z,5.90
2023-04-27T18:01:55.353Z,6.47
2023-04-27T18:06:58.259Z,5.65
2023-04-27T18:12:02.079Z,6.00
2023-04-27T18:17:08.098Z,6.13
2023-04-27T18:22:10.712Z,6.70
2023-04-27T18:27:18.509Z,5.72
2023-04-27T18:32:21.931Z,5.43
2023-04-27T18:37:24.531Z,5.72
2023-04-27T18:42:27.290Z,5.43
2023-04-27T18:47:30.079Z,5.20
2023-04-27T18:52:32.805Z,4.65
2023-04-27T18:57:35.563Z,4.60
2023-04-27T19:02:38.628Z,4.30
2023-04-27T19:07:41.613Z,4.07
2023-04-27T19:12:44.314Z,5.18
2023-04-27T19:17:48.769Z,4.15
2023-04-27T19:22:55.388Z,4.20
2023-04-27T19:27:58.786Z,4.38
2023-04-27T19:33:01.762Z,4.70
2023-04-27T19:38:04.411Z,4.50
2023-04-27T19:43:07.364Z,4.30
2023-04-27T19:48:10.263Z,4.38
2023-04-27T19:53:13.149Z,4.47
2023-04-27T19:58:16.344Z,4.22
2023-04-27T20:03:19.301Z,4.40
2023-04-27T20:08:22.200Z,5.18
2023-04-27T20:13:24.823Z,5.60
2023-04-27T20:18:31.619Z,4.85
2023-04-27T20:23:34.432Z,5.40
2023-04-27T20:28:38.528Z,5.50
2023-04-27T20:33:41.575Z,5.72
2023-04-27T20:38:44.792Z,5.60
2023-04-27T20:43:47.839Z,5.13
2023-04-27T20:48:50.594Z,4.32
2023-04-27T20:53:54.097Z,6.10
2023-04-27T20:58:58.129Z,5.40
2023-04-27T21:04:01.294Z,6.90
2023-04-27T21:09:05.699Z,6.82
2023-04-27T21:14:08.856Z,6.15
2023-04-27T21:19:14.761Z,7.40
2023-04-27T21:24:19.358Z,7.57
2023-04-27T21:29:22.857Z,7.60
2023-04-27T21:34:25.468Z,7.25
2023-04-27T21:39:28.209Z,8.02
2023-04-27T21:44:31.094Z,7.88
2023-04-27T21:49:34.048Z,8.25
2023-04-27T21:54:37.970Z,7.63
2023-04-27T21:59:41.079Z,8.10
2023-04-27T22:04:45.430Z,8.02
2023-04-27T22:09:48.158Z,7.40
2023-04-27T22:14:50.849Z,7.97
2023-04-27T22:19:53.496Z,7.50
2023-04-27T22:24:56.284Z,7.85
2023-04-27T22:29:59.080Z,7.90
2023-04-27T22:35:02.297Z,6.80
2023-04-27T22:40:05.998Z,7.65
2023-04-27T22:45:09.245Z,7.22
2023-04-27T22:50:12.574Z,7.03
2023-04-27T22:55:15.319Z,7.65
2023-04-27T23:00:19.338Z,7.53
2023-04-27T23:05:22.232Z,8.57
2023-04-27T23:10:24.804Z,6.80
2023-04-27T23:15:27.590Z,7.68
2023-04-27T23:20:30.233Z,7.30
2023-04-27T23:25:33.415Z,7.20
2023-04-27T23:30:36.592Z,7.55
2023-04-27T23:35:39.351Z,7.22
2023-04-27T23:40:41.900Z,6.93
2023-04-27T23:45:51.460Z,6.18
2023-04-27T23:51:03.126Z,7.32
2023-04-27T23:56:06.374Z,7.10
